createdAt,value
2023-05-21T00:02:30.241Z,66.42
2023-05-21T00:05:05.439Z,66.78
2023-05-21T00:07:37.975Z,66.85
2023-05-21T00:10:11.166Z,67.41
2023-05-21T00:12:43.704Z,67.77
2023-05-21T00:15:16.223Z,68.33
2023-05-21T00:17:48.758Z,68.03
2023-05-21T00:20:21.902Z,68.77
2023-05-21T00:22:54.356Z,68.35
2023-05-21T00:25:26.847Z,68.18
2023-05-21T00:27:59.302Z,69.10
2023-05-21T00:30:31.829Z,68.72
2023-05-21T00:33:04.344Z,69.34
2023-05-21T00:35:37.101Z,69.55
2023-05-21T00:38:09.709Z,69.58
2023-05-21T00:40:42.281Z,70.70
2023-05-21T00:43:14.852Z,70.22
2023-05-21T00:45:48.447Z,70.72
2023-05-21T00:48:21.208Z,70.23
2023-05-21T00:50:54.205Z,70.86
2023-05-21T00:53:27.529Z,70.84
2023-05-21T00:56:00.068Z,71.08
2023-05-21T00:58:34.029Z,71.35
2023-05-21T01:01:07.143Z,70.78
2023-05-21T01:03:41.049Z,70.84
2023-05-21T01:06:14.143Z,71.35
2023-05-21T01:08:46.916Z,71.90
2023-05-21T01:11:21.943Z,71.58
2023-05-21T01:13:54.641Z,71.72
2023-05-21T01:16:29.721Z,72.48
2023-05-21T01:19:03.478Z,72.22
2023-05-21T01:21:45.486Z,72.54
2023-05-21T01:24:18.547Z,72.87
2023-05-21T01:26:51.093Z,72.57
2023-05-21T01:29:23.629Z,73.23
2023-05-21T01:32:30.204Z,72.65
2023-05-21T01:35:11.254Z,72.42
2023-05-21T01:37:53.249Z,73.04
2023-05-21T01:40:38.398Z,73.10
2023-05-21T01:43:11.629Z,73.40
2023-05-21T01:45:45.833Z,73.63
2023-05-21T01:48:18.953Z,73.15
2023-05-21T01:50:52.993Z,73.00
2023-05-21T01:53:25.614Z,73.17
2023-05-21T01:55:59.373Z,73.19
2023-05-21T01:58:31.901Z,73.35
2023-05-21T02:01:05.104Z,73.11
2023-05-21T02:03:38.608Z,73.10
2023-05-21T02:06:11.432Z,73.01
2023-05-21T02:08:45.579Z,72.63
2023-05-21T02:11:18.116Z,73.38
2023-05-21T02:13:50.593Z,72.69
2023-05-21T02:16:23.178Z,72.88
2023-05-21T02:18:57.569Z,72.54
2023-05-21T02:21:31.012Z,72.17
2023-05-21T02:24:03.608Z,72.30
2023-05-21T02:26:36.112Z,72.28
2023-05-21T02:29:09.047Z,72.27
2023-05-21T02:31:41.532Z,72.24
2023-05-21T02:34:14.055Z,72.07
2023-05-21T02:36:48.374Z,72.13
2023-05-21T02:39:21.091Z,72.14
2023-05-21T02:41:53.582Z,71.86
2023-05-21T02:44:26.058Z,72.14
2023-05-21T02:46:58.542Z,71.90
2023-05-21T02:49:31.034Z,72.10
2023-05-21T02:52:03.775Z,72.04
2023-05-21T02:54:36.305Z,71.42
2023-05-21T02:57:08.799Z,72.36
2023-05-21T02:59:41.319Z,72.17
2023-05-21T03:02:13.899Z,72.45
2023-05-21T03:04:46.741Z,72.54
2023-05-21T03:07:19.766Z,72.75
2023-05-21T03:09:52.449Z,72.82
2023-05-21T03:12:24.898Z,72.16
2023-05-21T03:14:57.388Z,72.69
2023-05-21T03:17:29.848Z,72.92
2023-05-21T03:20:05.155Z,73.06
2023-05-21T03:22:37.596Z,73.33
2023-05-21T03:25:11.958Z,73.51
2023-05-21T03:27:44.425Z,73.19
2023-05-21T03:30:16.961Z,73.05
2023-05-21T03:32:49.777Z,73.55
2023-05-21T03:35:22.308Z,73.33
2023-05-21T03:37:54.766Z,73.87
2023-05-21T03:40:27.369Z,73.17
2023-05-21T03:42:59.840Z,73.20
2023-05-21T03:45:32.388Z,73.62
2023-05-21T03:48:05.152Z,73.14
2023-05-21T03:50:37.650Z,72.72
2023-05-21T03:53:10.859Z,72.71
2023-05-21T03:55:43.448Z,72.42
2023-05-21T03:58:15.880Z,72.26
2023-05-21T04:00:48.573Z,72.31
2023-05-21T04:03:21.268Z,73.06
2023-05-21T04:05:53.965Z,73.25
2023-05-21T04:08:26.977Z,72.45
2023-05-21T04:10:59.513Z,72.54
2023-05-21T04:13:32.208Z,73.27
2023-05-21T04:16:05.075Z,73.43
2023-05-21T04:18:37.581Z,74.05
2023-05-21T04:21:10.035Z,73.42
2023-05-21T04:23:42.511Z,73.45
2023-05-21T04:26:16.184Z,74.37
2023-05-21T04:28:48.683Z,73.80
2023-05-21T04:31:22.725Z,73.82
2023-05-21T04:33:55.225Z,74.16
2023-05-21T04:36:29.004Z,74.24
2023-05-21T04:39:02.465Z,74.53
2023-05-21T04:41:35.414Z,74.16
2023-05-21T04:44:08.405Z,73.67
2023-05-21T04:46:41.956Z,74.27
2023-05-21T04:49:15.359Z,73.18
2023-05-21T04:51:49.378Z,73.35
2023-05-21T04:54:21.857Z,73.07
2023-05-21T04:56:54.673Z,73.47
2023-05-21T04:59:27.164Z,73.17
2023-05-21T05:01:59.758Z,73.05
2023-05-21T05:04:32.288Z,73.54
2023-05-21T05:07:05.001Z,72.78
2023-05-21T05:09:37.533Z,72.79
2023-05-21T05:12:10.031Z,73.44
2023-05-21T05:14:42.460Z,73.07
2023-05-21T05:17:14.945Z,73.33
2023-05-21T05:19:47.429Z,72.61
2023-05-21T05:22:19.863Z,72.38
2023-05-21T05:24:52.516Z,72.10
2023-05-21T05:27:24.972Z,72.68
2023-05-21T05:29:57.396Z,72.12
2023-05-21T05:32:29.915Z,72.34
2023-05-21T05:35:03.172Z,72.44
2023-05-21T05:37:35.600Z,71.71
2023-05-21T05:40:08.509Z,71.50
2023-05-21T05:42:41.046Z,72.32
2023-05-21T05:45:13.578Z,72.31
2023-05-21T05:47:46.302Z,71.75
2023-05-21T05:50:20.798Z,71.11
2023-05-21T05:52:53.393Z,71.40
2023-05-21T05:55:26.774Z,70.79
2023-05-21T05:57:59.363Z,69.95
2023-05-21T06:00:32.242Z,69.62
2023-05-21T06:03:05.361Z,70.57
2023-05-21T06:05:38.184Z,69.38
2023-05-21T06:08:10.761Z,70.00
2023-05-21T06:10:43.201Z,70.00
2023-05-21T06:13:15.653Z,69.22
2023-05-21T06:15:48.293Z,68.08
2023-05-21T06:18:20.938Z,67.90
2023-05-21T06:20:53.384Z,67.19
2023-05-21T06:23:25.880Z,66.84
2023-05-21T06:25:58.346Z,66.07
2023-05-21T06:28:31.193Z,66.89
2023-05-21T06:31:03.708Z,65.97
2023-05-21T06:33:36.286Z,65.32
2023-05-21T06:36:08.790Z,65.75
2023-05-21T06:38:42.714Z,64.58
2023-05-21T06:41:15.334Z,65.11
2023-05-21T06:43:47.808Z,65.84
2023-05-21T06:46:20.390Z,64.67
2023-05-21T06:48:52.916Z,63.66
2023-05-21T06:51:25.560Z,63.92
2023-05-21T06:53:58.207Z,63.70
2023-05-21T06:56:30.681Z,63.33
2023-05-21T06:59:03.240Z,63.31
2023-05-21T07:01:35.788Z,63.50
2023-05-21T07:04:09.334Z,62.46
2023-05-21T07:06:41.810Z,61.86
2023-05-21T07:09:14.367Z,61.93
2023-05-21T07:11:47.092Z,61.74
2023-05-21T07:14:19.612Z,61.14
2023-05-21T07:16:52.209Z,61.51
2023-05-21T07:19:24.752Z,61.43
2023-05-21T07:21:57.690Z,60.72
2023-05-21T07:24:30.225Z,60.50
2023-05-21T07:27:08.858Z,59.68
2023-05-21T07:29:50.590Z,58.88
2023-05-21T07:32:23.080Z,58.70
2023-05-21T07:34:55.930Z,58.14
2023-05-21T07:37:31.623Z,58.51
2023-05-21T07:40:04.583Z,57.42
2023-05-21T07:42:37.107Z,58.24
2023-05-21T07:45:09.952Z,57.69
2023-05-21T07:47:42.815Z,56.54
2023-05-21T07:50:15.365Z,57.65
2023-05-21T07:52:47.875Z,58.45
2023-05-21T07:55:20.671Z,59.05
2023-05-21T07:57:53.597Z,59.34
2023-05-21T08:00:26.636Z,58.44
2023-05-21T08:02:59.243Z,59.81
2023-05-21T08:05:32.521Z,60.02
2023-05-21T08:08:05.647Z,61.59
2023-05-21T08:10:38.173Z,60.54
2023-05-21T08:13:13.910Z,58.40
2023-05-21T08:15:46.648Z,58.67
2023-05-21T08:18:19.290Z,57.91
2023-05-21T08:20:51.851Z,57.73
2023-05-21T08:23:24.415Z,56.15
2023-05-21T08:25:57.141Z,54.90
2023-05-21T08:28:30.765Z,55.56
2023-05-21T08:31:03.245Z,56.03
2023-05-21T08:33:38.914Z,56.55
2023-05-21T08:36:11.497Z,55.88
2023-05-21T08:38:44.138Z,57.60
2023-05-21T08:41:18.378Z,56.83
2023-05-21T08:43:57.636Z,56.11
2023-05-21T08:46:34.764Z,56.46
2023-05-21T08:49:12.529Z,56.49
2023-05-21T08:51:46.494Z,57.33
2023-05-21T08:54:19.125Z,57.18
2023-05-21T08:56:53.235Z,57.46
2023-05-21T08:59:27.202Z,57.78
2023-05-21T09:02:00.237Z,56.99
2023-05-21T09:04:34.215Z,55.53
2023-05-21T09:07:09.834Z,55.02
2023-05-21T09:09:49.414Z,56.50
2023-05-21T09:12:21.996Z,56.48
2023-05-21T09:14:56.716Z,57.77
2023-05-21T09:17:31.497Z,56.66
2023-05-21T09:20:17.488Z,55.08
2023-05-21T09:22:50.695Z,55.34
2023-05-21T09:25:29.768Z,54.50
2023-05-21T09:28:02.259Z,54.86
2023-05-21T09:30:36.091Z,55.70
2023-05-21T09:33:08.838Z,57.44
2023-05-21T09:35:50.558Z,57.63
2023-05-21T09:38:27.084Z,59.77
2023-05-21T09:40:59.833Z,58.82
2023-05-21T09:43:32.911Z,57.69
2023-05-21T09:46:05.473Z,59.14
2023-05-21T09:48:43.107Z,58.82
2023-05-21T09:51:17.723Z,58.13
2023-05-21T09:53:54.344Z,57.63
2023-05-21T09:56:29.317Z,57.96
2023-05-21T09:59:06.765Z,56.36
2023-05-21T10:01:39.408Z,55.72
2023-05-21T10:04:12.924Z,55.45
2023-05-21T10:06:47.861Z,55.65
2023-05-21T10:09:21.428Z,56.43
2023-05-21T10:11:55.121Z,57.00
2023-05-21T10:14:32.154Z,56.34
2023-05-21T10:17:06.311Z,54.81
2023-05-21T10:19:40.533Z,54.84
2023-05-21T10:22:13.911Z,56.34
2023-05-21T10:24:47.673Z,55.09
2023-05-21T10:27:22.626Z,55.45
2023-05-21T10:29:57.621Z,54.93
2023-05-21T10:32:30.595Z,54.30
2023-05-21T10:35:03.434Z,55.40
2023-05-21T10:37:36.192Z,54.71
2023-05-21T10:40:09.241Z,53.08
2023-05-21T10:43:01.779Z,52.63
2023-05-21T10:46:02.225Z,51.70
2023-05-21T10:48:52.677Z,52.10
2023-05-21T10:51:29.106Z,51.24
2023-05-21T10:54:01.769Z,52.16
2023-05-21T10:56:46.473Z,51.19
2023-05-21T10:59:28.284Z,49.69
2023-05-21T11:02:01.778Z,49.99
2023-05-21T11:04:39.822Z,50.82
2023-05-21T11:07:13.039Z,50.35
2023-05-21T11:09:45.603Z,49.87
2023-05-21T11:12:19.820Z,49.91
2023-05-21T11:14:58.404Z,50.92
2023-05-21T11:17:39.998Z,52.00
2023-05-21T11:20:14.273Z,51.78
2023-05-21T11:22:46.888Z,50.16
2023-05-21T11:25:19.334Z,51.36
2023-05-21T11:27:53.576Z,49.22
2023-05-21T11:30:25.998Z,47.89
2023-05-21T11:33:07.763Z,47.56
2023-05-21T11:35:46.202Z,47.66
2023-05-21T11:38:18.715Z,47.03
2023-05-21T11:40:54.829Z,48.37
2023-05-21T11:43:27.534Z,45.87
2023-05-21T11:46:00.141Z,46.26
2023-05-21T11:48:33.042Z,45.70
2023-05-21T11:51:06.133Z,46.42
2023-05-21T11:53:39.477Z,46.47
2023-05-21T11:56:12.979Z,46.17
2023-05-21T11:58:46.565Z,46.85
2023-05-21T12:01:26.492Z,47.41
2023-05-21T12:03:59.063Z,47.39
2023-05-21T12:06:31.641Z,48.39
2023-05-21T12:09:05.060Z,48.16
2023-05-21T12:11:39.917Z,47.92
2023-05-21T12:14:12.837Z,48.38
2023-05-21T12:16:45.451Z,47.83
2023-05-21T12:19:18.943Z,47.50
2023-05-21T12:21:51.504Z,46.69
2023-05-21T12:24:24.027Z,45.71
2023-05-21T12:26:59.496Z,45.61
2023-05-21T12:29:33.063Z,45.11
2023-05-21T12:32:09.088Z,45.24
2023-05-21T12:34:46.265Z,45.65
2023-05-21T12:37:27.758Z,44.01
2023-05-21T12:40:01.359Z,44.35
2023-05-21T12:42:34.843Z,44.61
2023-05-21T12:45:08.722Z,44.95
2023-05-21T12:47:41.216Z,45.26
2023-05-21T12:50:14.140Z,45.30
2023-05-21T12:52:46.747Z,44.39
2023-05-21T12:55:19.257Z,44.04
2023-05-21T12:58:02.243Z,43.57
2023-05-21T13:00:35.247Z,43.58
2023-05-21T13:03:08.034Z,44.50
2023-05-21T13:05:41.829Z,43.24
2023-05-21T13:08:16.873Z,43.34
2023-05-21T13:10:49.402Z,43.44
2023-05-21T13:13:22.014Z,43.26
2023-05-21T13:15:55.150Z,43.64
2023-05-21T13:18:27.744Z,42.56
2023-05-21T13:21:00.325Z,42.51
2023-05-21T13:23:33.009Z,43.98
2023-05-21T13:26:05.513Z,42.80
2023-05-21T13:28:38.027Z,44.01
2023-05-21T13:31:12.066Z,44.36
2023-05-21T13:33:44.599Z,43.60
2023-05-21T13:36:17.200Z,43.06
2023-05-21T13:38:49.662Z,43.67
2023-05-21T13:41:22.174Z,42.94
2023-05-21T13:43:54.870Z,42.82
2023-05-21T13:46:27.813Z,45.10
2023-05-21T13:49:00.980Z,44.43
2023-05-21T13:51:39.078Z,42.77
2023-05-21T13:54:14.182Z,43.52
2023-05-21T13:56:47.301Z,43.18
2023-05-21T13:59:20.229Z,43.51
2023-05-21T14:01:53.453Z,41.37
2023-05-21T14:04:26.351Z,41.45
2023-05-21T14:06:59.133Z,40.07
2023-05-21T14:09:32.098Z,40.27
2023-05-21T14:12:06.580Z,40.16
2023-05-21T14:14:39.474Z,41.25
2023-05-21T14:17:12.290Z,40.85
2023-05-21T14:19:44.930Z,39.85
2023-05-21T14:22:17.446Z,40.03
2023-05-21T14:24:50.090Z,40.56
2023-05-21T14:27:22.587Z,40.96
2023-05-21T14:29:55.436Z,41.12
2023-05-21T14:32:28.003Z,41.32
2023-05-21T14:35:00.970Z,41.42
2023-05-21T14:37:33.657Z,40.94
2023-05-21T14:40:07.978Z,40.47
2023-05-21T14:42:40.833Z,41.85
2023-05-21T14:45:18.990Z,41.76
2023-05-21T14:47:52.509Z,40.65
2023-05-21T14:50:25.136Z,40.42
2023-05-21T14:52:57.944Z,39.66
2023-05-21T14:55:30.834Z,39.75
2023-05-21T14:58:04.967Z,39.74
2023-05-21T15:00:38.258Z,40.10
2023-05-21T15:03:10.788Z,41.11
2023-05-21T15:05:43.328Z,41.92
2023-05-21T15:08:15.778Z,42.32
2023-05-21T15:10:48.329Z,41.11
2023-05-21T15:13:21.396Z,40.80
2023-05-21T15:15:54.098Z,40.44
2023-05-21T15:18:26.649Z,39.57
2023-05-21T15:20:59.286Z,39.18
2023-05-21T15:23:32.261Z,38.76
2023-05-21T15:26:04.958Z,38.87
2023-05-21T15:28:37.579Z,39.01
2023-05-21T15:31:11.025Z,38.85
2023-05-21T15:33:43.587Z,38.73
2023-05-21T15:36:16.145Z,38.33
2023-05-21T15:38:48.714Z,38.88
2023-05-21T15:41:22.039Z,39.29
2023-05-21T15:43:54.663Z,38.17
2023-05-21T15:46:27.640Z,37.18
2023-05-21T15:49:00.708Z,37.21
2023-05-21T15:51:33.360Z,37.16
2023-05-21T15:54:06.454Z,36.84
2023-05-21T15:56:40.629Z,37.65
2023-05-21T15:59:14.048Z,37.87
2023-05-21T16:01:47.674Z,37.13
2023-05-21T16:04:20.562Z,37.18
2023-05-21T16:06:53.323Z,37.26
2023-05-21T16:09:26.184Z,36.84
2023-05-21T16:11:59.200Z,37.29
2023-05-21T16:14:32.079Z,37.15
2023-05-21T16:17:04.956Z,35.98
2023-05-21T16:19:39.187Z,35.88
2023-05-21T16:22:12.049Z,35.55
2023-05-21T16:24:44.739Z,35.91
2023-05-21T16:27:18.208Z,34.94
2023-05-21T16:29:50.891Z,34.68
2023-05-21T16:32:23.776Z,35.90
2023-05-21T16:34:56.772Z,36.44
2023-05-21T16:37:29.267Z,36.13
2023-05-21T16:40:04.277Z,37.85
2023-05-21T16:42:36.827Z,37.72
2023-05-21T16:45:10.964Z,37.62
2023-05-21T16:47:43.701Z,37.43
2023-05-21T16:50:18.453Z,39.23
2023-05-21T16:52:51.024Z,39.82
2023-05-21T16:55:24.640Z,39.99
2023-05-21T16:57:57.775Z,41.85
2023-05-21T17:00:30.710Z,41.39
2023-05-21T17:03:03.508Z,40.82
2023-05-21T17:05:36.410Z,41.69
2023-05-21T17:08:09.582Z,41.09
2023-05-21T17:10:44.015Z,39.74
2023-05-21T17:13:22.186Z,39.83
2023-05-21T17:15:55.855Z,39.78
2023-05-21T17:18:28.926Z,39.80
2023-05-21T17:21:01.729Z,39.92
2023-05-21T17:23:35.229Z,40.02
2023-05-21T17:26:11.388Z,39.09
2023-05-21T17:28:44.002Z,40.57
2023-05-21T17:31:17.039Z,40.60
2023-05-21T17:33:49.940Z,39.97
2023-05-21T17:36:22.519Z,40.27
2023-05-21T17:38:55.306Z,40.22
2023-05-21T17:41:27.987Z,41.27
2023-05-21T17:44:00.674Z,40.65
2023-05-21T17:46:33.245Z,40.92
2023-05-21T17:49:08.269Z,40.62
2023-05-21T17:51:41.232Z,41.75
2023-05-21T17:54:13.806Z,40.65
2023-05-21T17:56:46.690Z,41.08
2023-05-21T17:59:19.603Z,41.36
2023-05-21T18:01:52.085Z,41.56
2023-05-21T18:04:24.767Z,41.11
2023-05-21T18:06:57.301Z,40.97
2023-05-21T18:09:29.863Z,40.54
2023-05-21T18:12:03.557Z,39.47
2023-05-21T18:14:36.190Z,39.69
2023-05-21T18:17:09.056Z,39.43
2023-05-21T18:19:41.686Z,40.39
2023-05-21T18:22:14.317Z,41.08
2023-05-21T18:24:46.891Z,41.08
2023-05-21T18:27:19.364Z,41.93
2023-05-21T18:29:52.338Z,41.84
2023-05-21T18:32:25.001Z,45.35
2023-05-21T18:34:58.669Z,45.80
2023-05-21T18:37:31.386Z,45.67
2023-05-21T18:40:07.646Z,47.03
2023-05-21T18:42:40.515Z,48.47
2023-05-21T18:45:13.552Z,48.81
2023-05-21T18:47:46.061Z,49.40
2023-05-21T18:50:25.609Z,50.98
2023-05-21T18:52:58.461Z,52.34
2023-05-21T18:55:31.094Z,52.30
2023-05-21T18:58:03.614Z,53.39
2023-05-21T19:00:38.289Z,53.71
2023-05-21T19:03:11.467Z,54.53
2023-05-21T19:05:44.176Z,56.59
2023-05-21T19:08:16.817Z,55.98
2023-05-21T19:10:49.898Z,55.91
2023-05-21T19:13:22.719Z,56.15
2023-05-21T19:15:57.199Z,56.80
2023-05-21T19:18:31.614Z,56.17
2023-05-21T19:21:04.300Z,57.92
2023-05-21T19:23:51.213Z,58.03
2023-05-21T19:26:25.496Z,58.45
2023-05-21T19:28:57.972Z,58.38
2023-05-21T19:31:30.575Z,59.68
2023-05-21T19:34:10.163Z,59.82
2023-05-21T19:36:52.867Z,59.91
2023-05-21T19:39:26.503Z,60.80
2023-05-21T19:41:59.054Z,60.64
2023-05-21T19:44:31.706Z,61.44
2023-05-21T19:47:04.479Z,60.80
2023-05-21T19:49:37.108Z,61.84
2023-05-21T19:52:10.578Z,61.22
2023-05-21T19:54:43.085Z,62.75
2023-05-21T19:57:16.387Z,61.73
2023-05-21T19:59:48.942Z,62.65
2023-05-21T20:02:23.253Z,64.55
2023-05-21T20:04:57.659Z,63.80
2023-05-21T20:07:30.106Z,66.32
2023-05-21T20:10:02.762Z,65.97
2023-05-21T20:12:38.361Z,66.72
2023-05-21T20:15:13.168Z,67.92
2023-05-21T20:17:46.216Z,67.72
2023-05-21T20:20:18.995Z,67.29
2023-05-21T20:22:51.433Z,67.44
2023-05-21T20:25:24.026Z,67.48
2023-05-21T20:28:03.420Z,68.00
2023-05-21T20:30:59.029Z,67.87
2023-05-21T20:33:33.384Z,69.85
2023-05-21T20:36:05.898Z,69.99
2023-05-21T20:38:42.082Z,71.33
2023-05-21T20:41:14.717Z,70.55
2023-05-21T20:43:47.638Z,72.03
2023-05-21T20:46:20.175Z,71.03
2023-05-21T20:48:53.017Z,71.31
2023-05-21T20:51:26.532Z,71.18
2023-05-21T20:53:59.241Z,71.36
2023-05-21T20:56:41.394Z,72.45
2023-05-21T20:59:15.497Z,72.77
2023-05-21T21:01:48.194Z,72.52
2023-05-21T21:04:20.829Z,72.88
2023-05-21T21:06:54.097Z,73.65
2023-05-21T21:09:26.722Z,72.73
2023-05-21T21:12:06.272Z,73.27
2023-05-21T21:14:44.152Z,73.33
2023-05-21T21:17:16.780Z,74.87
2023-05-21T21:19:49.226Z,73.54
2023-05-21T21:22:21.905Z,74.34
2023-05-21T21:24:54.507Z,74.59
2023-05-21T21:27:27.107Z,73.97
2023-05-21T21:29:59.589Z,74.59
2023-05-21T21:32:32.133Z,74.85
2023-05-21T21:35:04.924Z,75.66
2023-05-21T21:37:37.425Z,74.93
2023-05-21T21:40:10.156Z,75.37
2023-05-21T21:42:43.191Z,75.04
2023-05-21T21:45:16.107Z,75.29
2023-05-21T21:47:48.898Z,75.79
2023-05-21T21:50:21.519Z,75.65
2023-05-21T21:52:55.936Z,75.73
2023-05-21T21:55:29.540Z,75.75
2023-05-21T21:58:02.036Z,76.83
2023-05-21T22:00:34.766Z,76.09
2023-05-21T22:03:07.244Z,76.99
2023-05-21T22:05:39.905Z,75.70
2023-05-21T22:08:12.449Z,77.61
2023-05-21T22:10:44.977Z,77.90
2023-05-21T22:13:17.414Z,78.10
2023-05-21T22:15:50.192Z,77.96
2023-05-21T22:18:38.760Z,77.26
2023-05-21T22:21:14.272Z,77.46
2023-05-21T22:23:47.269Z,76.76
2023-05-21T22:26:20.222Z,76.79
2023-05-21T22:28:52.768Z,77.94
2023-05-21T22:31:25.695Z,79.68
2023-05-21T22:33:58.231Z,78.05
2023-05-21T22:36:30.705Z,77.90
2023-05-21T22:39:03.440Z,78.50
2023-05-21T22:41:35.899Z,78.76
2023-05-21T22:44:08.384Z,79.87
2023-05-21T22:46:42.278Z,78.41
2023-05-21T22:49:17.616Z,78.80
2023-05-21T22:51:51.005Z,78.26
2023-05-21T22:54:23.777Z,78.74
2023-05-21T22:56:56.225Z,78.95
2023-05-21T22:59:29.011Z,79.86
2023-05-21T23:02:01.622Z,80.15
2023-05-21T23:04:43.136Z,79.28
2023-05-21T23:07:16.097Z,79.67
2023-05-21T23:09:55.738Z,79.56
2023-05-21T23:12:28.288Z,81.42
2023-05-21T23:15:01.000Z,81.61
2023-05-21T23:17:33.596Z,81.85
2023-05-21T23:20:08.815Z,82.52
2023-05-21T23:22:41.493Z,81.15
2023-05-21T23:25:14.142Z,80.83
2023-05-21T23:27:46.993Z,81.48
2023-05-21T23:30:19.483Z,83.51
2023-05-21T23:32:52.069Z,84.07
2023-05-21T23:35:24.634Z,84.09
2023-05-21T23:37:57.150Z,83.11
2023-05-21T23:40:29.671Z,83.12
2023-05-21T23:43:02.208Z,84.31
2023-05-21T23:45:34.745Z,84.97
2023-05-21T23:48:07.817Z,84.25
2023-05-21T23:50:40.530Z,85.16
2023-05-21T23:53:13.216Z,86.24
2023-05-21T23:55:45.840Z,85.70
2023-05-21T23:58:18.441Z,85.97
